createdAt,value
2022-09-12T00:01:28.086Z,9.52
2022-09-12T00:04:00.228Z,9.40
2022-09-12T00:06:29.588Z,9.98
2022-09-12T00:09:04.706Z,9.52
2022-09-12T00:11:32.201Z,11.48
2022-09-12T00:14:02.486Z,10.75
2022-09-12T00:16:33.174Z,13.15
2022-09-12T00:19:01.917Z,11.27
2022-09-12T00:21:29.760Z,12.88
2022-09-12T00:23:57.223Z,13.93
2022-09-12T00:26:24.665Z,16.30
2022-09-12T00:28:52.675Z,15.18
2022-09-12T00:31:25.274Z,14.30
2022-09-12T00:33:56.289Z,14.82
2022-09-12T00:36:25.975Z,14.17
2022-09-12T00:38:54.643Z,13.88
2022-09-12T00:41:32.346Z,14.38
2022-09-12T00:44:24.613Z,13.40
2022-09-12T00:46:54.543Z,12.30
2022-09-12T00:49:26.762Z,14.57
2022-09-12T00:52:07.202Z,11.73
2022-09-12T00:54:55.366Z,10.85
2022-09-12T00:57:29.777Z,12.07
2022-09-12T01:00:05.803Z,12.98
2022-09-12T01:02:33.200Z,12.48
2022-09-12T01:05:00.691Z,13.40
2022-09-12T01:07:28.911Z,14.60
2022-09-12T01:09:56.465Z,15.48
2022-09-12T01:12:24.459Z,15.38
2022-09-12T01:14:52.006Z,12.35
2022-09-12T01:17:19.411Z,11.40
2022-09-12T01:19:52.702Z,12.40
2022-09-12T01:23:03.110Z,10.57
2022-09-12T01:26:13.463Z,15.70
2022-09-12T01:29:00.577Z,15.13
2022-09-12T01:31:42.131Z,15.10
2022-09-12T01:34:56.811Z,14.75
2022-09-12T01:37:51.512Z,14.55
2022-09-12T01:40:26.373Z,15.65
2022-09-12T01:43:19.258Z,13.10
2022-09-12T01:46:03.396Z,14.70
2022-09-12T01:48:44.189Z,15.27
2022-09-12T01:51:27.636Z,14.90
2022-09-12T01:54:22.853Z,17.10
2022-09-12T01:56:58.597Z,17.13
2022-09-12T01:59:41.356Z,16.80
2022-09-12T02:02:27.803Z,16.80
2022-09-12T02:05:13.694Z,16.95
2022-09-12T02:07:51.811Z,16.30
2022-09-12T02:10:32.518Z,15.35
2022-09-12T02:13:13.171Z,14.67
2022-09-12T02:15:51.352Z,15.80
2022-09-12T02:18:21.145Z,13.68
2022-09-12T02:20:51.585Z,14.70
2022-09-12T02:23:31.883Z,16.25
2022-09-12T02:26:10.307Z,14.32
2022-09-12T02:28:43.060Z,13.35
2022-09-12T02:31:48.406Z,15.90
2022-09-12T02:34:44.635Z,13.27
2022-09-12T02:37:37.027Z,15.43
2022-09-12T02:40:06.998Z,16.23
2022-09-12T02:42:36.703Z,16.02
2022-09-12T02:45:04.965Z,13.88
2022-09-12T02:47:52.999Z,13.40
2022-09-12T02:50:21.873Z,14.30
2022-09-12T02:52:53.723Z,16.38
2022-09-12T02:55:21.545Z,15.85
2022-09-12T02:57:48.961Z,15.20
2022-09-12T03:00:16.504Z,18.90
2022-09-12T03:03:02.440Z,18.52
2022-09-12T03:05:59.056Z,17.98
2022-09-12T03:09:05.760Z,17.88
2022-09-12T03:11:47.675Z,18.55
2022-09-12T03:14:46.718Z,16.50
2022-09-12T03:17:37.375Z,17.15
2022-09-12T03:20:18.972Z,16.15
2022-09-12T03:23:00.967Z,15.77
2022-09-12T03:25:50.013Z,15.15
2022-09-12T03:28:21.194Z,16.67
2022-09-12T03:30:51.485Z,18.35
2022-09-12T03:33:23.959Z,17.48
2022-09-12T03:35:53.226Z,18.33
2022-09-12T03:38:20.836Z,20.70
2022-09-12T03:40:52.714Z,20.90
2022-09-12T03:43:22.159Z,23.20
2022-09-12T03:45:53.429Z,22.40
2022-09-12T03:48:22.089Z,22.48
2022-09-12T03:50:49.486Z,22.25
2022-09-12T03:53:17.581Z,24.08
2022-09-12T03:55:45.401Z,25.88
2022-09-12T03:58:12.779Z,23.90
2022-09-12T04:00:40.919Z,27.02
2022-09-12T04:03:09.184Z,26.13
2022-09-12T04:05:36.784Z,22.80
2022-09-12T04:08:04.174Z,20.10
2022-09-12T04:10:32.437Z,22.15
2022-09-12T04:12:59.826Z,22.13
2022-09-12T04:15:27.216Z,21.95
2022-09-12T04:17:54.708Z,23.98
2022-09-12T04:20:22.239Z,23.92
2022-09-12T04:22:49.604Z,20.13
2022-09-12T04:25:17.307Z,20.52
2022-09-12T04:27:44.715Z,23.23
2022-09-12T04:30:12.803Z,19.70
2022-09-12T04:32:41.350Z,21.38
2022-09-12T04:35:08.974Z,23.67
2022-09-12T04:37:36.435Z,22.92
2022-09-12T04:40:04.170Z,22.63
2022-09-12T04:42:31.632Z,21.65
2022-09-12T04:44:59.093Z,21.27
2022-09-12T04:47:26.482Z,21.67
2022-09-12T04:49:54.028Z,24.05
2022-09-12T04:52:21.476Z,33.25
2022-09-12T04:54:48.903Z,29.85
2022-09-12T04:57:16.550Z,31.85
2022-09-12T04:59:44.034Z,25.75
2022-09-12T05:02:11.498Z,24.30
2022-09-12T05:04:38.902Z,31.13
2022-09-12T05:07:06.563Z,29.70
2022-09-12T05:09:33.959Z,28.30
2022-09-12T05:12:05.488Z,26.95
2022-09-12T05:14:34.921Z,28.52
2022-09-12T05:17:04.607Z,27.48
2022-09-12T05:19:32.871Z,28.33
2022-09-12T05:22:00.601Z,28.15
2022-09-12T05:24:28.875Z,27.77
2022-09-12T05:26:56.368Z,30.92
2022-09-12T05:29:25.160Z,28.60
2022-09-12T05:31:52.904Z,33.40
2022-09-12T05:34:20.915Z,37.45
2022-09-12T05:36:49.077Z,35.95
2022-09-12T05:39:16.753Z,36.42
2022-09-12T05:41:44.412Z,36.83
2022-09-12T05:44:14.248Z,46.13
2022-09-12T05:46:46.594Z,40.78
2022-09-12T05:49:14.545Z,45.88
2022-09-12T05:51:45.818Z,39.05
2022-09-12T05:54:19.415Z,40.75
2022-09-12T05:56:48.985Z,42.70
2022-09-12T05:59:20.381Z,41.03
2022-09-12T06:01:48.905Z,45.17
2022-09-12T06:04:17.209Z,48.45
2022-09-12T06:06:45.876Z,48.90
2022-09-12T06:09:16.519Z,48.63
2022-09-12T06:11:46.286Z,60.00
2022-09-12T06:14:16.691Z,52.35
2022-09-12T06:16:44.515Z,54.35
2022-09-12T06:19:21.742Z,56.05
2022-09-12T06:21:49.897Z,57.75
2022-09-12T06:24:19.613Z,58.85
2022-09-12T06:26:48.762Z,57.60
2022-09-12T06:29:16.358Z,57.58
2022-09-12T06:31:46.064Z,61.63
2022-09-12T06:34:15.512Z,67.70
2022-09-12T06:36:46.706Z,56.97
2022-09-12T06:39:18.326Z,61.78
2022-09-12T06:44:23.373Z,53.42
2022-09-12T06:46:51.412Z,53.08
2022-09-12T06:49:18.911Z,53.17
2022-09-12T06:51:46.309Z,56.50
2022-09-12T06:54:16.982Z,55.38
2022-09-12T06:56:45.815Z,57.65
2022-09-12T06:59:13.379Z,58.92
2022-09-12T07:01:41.624Z,58.83
2022-09-12T07:04:10.037Z,57.00
2022-09-12T07:06:41.549Z,52.40
2022-09-12T07:09:13.682Z,55.47
2022-09-12T07:11:43.260Z,58.60
2022-09-12T07:14:14.227Z,55.40
2022-09-12T07:16:42.873Z,62.95
2022-09-12T07:19:10.825Z,61.33
2022-09-12T07:21:40.457Z,64.57
2022-09-12T07:24:11.447Z,60.03
2022-09-12T07:26:41.886Z,54.85
2022-09-12T07:32:05.542Z,52.20
2022-09-12T07:34:34.248Z,55.03
2022-09-12T07:37:01.642Z,47.13
2022-09-12T07:39:29.003Z,46.67
2022-09-12T07:41:57.313Z,46.65
2022-09-12T07:44:26.884Z,47.05
2022-09-12T07:46:54.248Z,47.33
2022-09-12T07:49:21.750Z,45.28
2022-09-12T07:51:49.134Z,49.42
2022-09-12T07:54:17.572Z,45.30
2022-09-12T07:56:45.822Z,42.63
2022-09-12T07:59:13.583Z,43.03
2022-09-12T08:01:45.216Z,45.47
2022-09-12T08:06:40.050Z,39.15
2022-09-12T08:09:08.046Z,39.40
2022-09-12T08:11:35.550Z,38.75
2022-09-12T08:14:05.520Z,35.05
2022-09-12T08:16:35.638Z,37.90
2022-09-12T08:19:04.403Z,36.90
2022-09-12T08:21:33.525Z,36.83
2022-09-12T08:24:06.698Z,34.42
2022-09-12T08:26:34.847Z,33.92
2022-09-12T08:29:02.452Z,32.72
2022-09-12T08:31:31.872Z,30.88
2022-09-12T08:34:00.788Z,31.58
2022-09-12T08:36:29.631Z,29.45
2022-09-12T08:39:01.336Z,29.83
2022-09-12T08:41:49.234Z,29.55
2022-09-12T08:44:43.833Z,29.75
2022-09-12T08:47:39.166Z,26.73
2022-09-12T08:50:12.126Z,25.88
2022-09-12T08:52:51.859Z,27.15
2022-09-12T08:55:59.474Z,25.17
2022-09-12T08:58:29.544Z,24.90
2022-09-12T09:01:28.890Z,23.63
2022-09-12T09:04:14.855Z,23.70
2022-09-12T09:06:54.422Z,24.33
2022-09-12T09:09:55.450Z,23.90
2022-09-12T09:12:36.465Z,23.67
2022-09-12T09:15:57.534Z,23.15
2022-09-12T09:18:33.670Z,22.35
2022-09-12T09:21:23.745Z,23.52
2022-09-12T09:24:05.085Z,22.45
2022-09-12T09:27:36.768Z,20.58
2022-09-12T09:30:03.822Z,19.90
2022-09-12T09:32:40.967Z,21.27
2022-09-12T09:35:37.877Z,21.45
2022-09-12T09:38:47.250Z,22.00
2022-09-12T09:41:34.664Z,18.98
2022-09-12T09:44:03.207Z,19.73
2022-09-12T09:46:32.199Z,17.60
2022-09-12T09:49:05.519Z,18.73
2022-09-12T09:51:39.647Z,18.42
2022-09-12T09:54:21.221Z,16.63
2022-09-12T09:59:31.887Z,15.77
2022-09-12T10:02:14.444Z,17.98
2022-09-12T10:04:55.511Z,15.38
2022-09-12T10:07:25.897Z,14.88
2022-09-12T10:10:23.115Z,13.55
2022-09-12T10:12:51.442Z,13.05
2022-09-12T10:15:26.618Z,14.18
2022-09-12T10:17:57.076Z,13.15
2022-09-12T10:20:45.475Z,14.37
2022-09-12T10:23:19.144Z,13.20
2022-09-12T10:25:53.685Z,14.32
2022-09-12T10:28:31.844Z,13.32
2022-09-12T10:31:01.499Z,10.07
2022-09-12T10:33:29.946Z,14.25
2022-09-12T10:35:57.892Z,13.13
2022-09-12T10:38:32.207Z,13.30
2022-09-12T10:41:06.590Z,10.73
2022-09-12T10:43:33.969Z,10.98
2022-09-12T10:46:16.457Z,12.40
2022-09-12T10:48:45.825Z,12.30
2022-09-12T10:51:28.869Z,11.65
2022-09-12T10:54:00.578Z,9.75
2022-09-12T10:56:36.039Z,10.38
2022-09-12T10:59:35.967Z,11.45
2022-09-12T11:02:30.989Z,10.07
2022-09-12T11:05:12.802Z,14.63
2022-09-12T11:07:50.864Z,13.02
2022-09-12T11:10:51.849Z,10.23
2022-09-12T11:13:51.274Z,10.68
2022-09-12T11:16:55.402Z,9.98
2022-09-12T11:19:54.812Z,9.25
2022-09-12T11:22:47.641Z,9.70
2022-09-12T11:25:41.340Z,10.90
2022-09-12T11:28:36.034Z,10.82
2022-09-12T11:31:46.173Z,10.35
2022-09-12T11:34:29.677Z,10.25
2022-09-12T11:37:24.902Z,9.50
2022-09-12T11:39:55.990Z,9.32
2022-09-12T11:45:28.942Z,8.25
2022-09-12T11:48:07.143Z,8.57
2022-09-12T11:50:34.622Z,8.20
2022-09-12T11:53:22.730Z,7.93
2022-09-12T11:56:04.582Z,7.47
2022-09-12T11:58:32.187Z,8.05
2022-09-12T12:01:22.941Z,8.88
2022-09-12T12:03:52.722Z,8.02
2022-09-12T12:06:31.438Z,8.65
2022-09-12T12:08:59.404Z,7.85
2022-09-12T12:11:37.146Z,7.90
2022-09-12T12:14:16.143Z,7.82
2022-09-12T12:16:44.352Z,7.57
2022-09-12T12:19:14.374Z,5.95
2022-09-12T12:21:50.862Z,7.03
2022-09-12T12:24:25.587Z,5.28
2022-09-12T12:26:53.007Z,6.13
2022-09-12T12:29:43.661Z,9.90
2022-09-12T12:32:11.515Z,5.45
2022-09-12T12:34:42.217Z,5.95
2022-09-12T12:37:18.596Z,5.03
2022-09-12T12:39:47.775Z,6.10
2022-09-12T12:42:36.264Z,6.20
2022-09-12T12:45:06.669Z,5.78
2022-09-12T12:47:49.484Z,5.73
2022-09-12T12:50:16.763Z,6.00
2022-09-12T12:52:51.867Z,9.30
2022-09-12T12:55:33.874Z,6.47
2022-09-12T12:58:04.603Z,7.97
2022-09-12T13:00:40.278Z,6.75
2022-09-12T13:03:29.463Z,6.60
2022-09-12T13:25:37.264Z,5.72
2022-09-12T13:28:15.289Z,7.80
2022-09-12T13:30:47.335Z,6.45
2022-09-12T13:33:45.181Z,5.65
2022-09-12T13:36:27.883Z,6.20
2022-09-12T13:48:40.590Z,7.03
2022-09-12T13:51:25.927Z,7.30
2022-09-12T14:02:41.599Z,6.45
2022-09-12T14:05:22.255Z,10.07
2022-09-12T14:08:02.796Z,8.53
2022-09-12T14:23:01.335Z,9.18
2022-09-12T14:25:44.292Z,8.13
2022-09-12T14:28:23.640Z,7.53
2022-09-12T14:34:16.139Z,9.93
2022-09-12T14:36:48.770Z,7.95
2022-09-12T14:39:32.739Z,11.13
2022-09-12T14:42:36.682Z,10.95
2022-09-12T14:45:33.826Z,10.02
2022-09-12T14:48:06.558Z,5.93
2022-09-12T14:51:08.790Z,13.50
2022-09-12T14:54:05.272Z,10.60
2022-09-12T15:03:38.448Z,9.10
2022-09-12T15:06:08.039Z,9.20
2022-09-12T15:08:35.659Z,9.38
2022-09-12T15:11:07.233Z,8.10
2022-09-12T15:13:41.745Z,10.07
2022-09-12T15:16:12.160Z,9.60
2022-09-12T15:18:39.860Z,7.88
2022-09-12T15:21:13.865Z,6.80
2022-09-12T15:23:47.966Z,7.13
2022-09-12T15:26:27.401Z,8.15
2022-09-12T15:28:54.766Z,7.43
2022-09-12T15:31:27.387Z,7.65
2022-09-12T15:33:57.356Z,6.65
2022-09-12T15:36:26.404Z,6.53
2022-09-12T15:38:53.798Z,8.23
2022-09-12T15:41:36.765Z,6.22
2022-09-12T15:44:08.212Z,5.78
2022-09-12T15:46:36.025Z,6.78
2022-09-12T15:49:03.600Z,6.95
2022-09-12T15:51:31.036Z,6.32
2022-09-12T15:54:04.303Z,5.70
2022-09-12T15:56:31.808Z,6.22
2022-09-12T15:59:00.192Z,7.28
2022-09-12T16:01:29.240Z,6.60
2022-09-12T16:03:57.455Z,7.22
2022-09-12T16:06:25.267Z,7.60
2022-09-12T16:08:52.817Z,7.13
2022-09-12T16:11:25.029Z,5.47
2022-09-12T16:13:54.191Z,5.97
2022-09-12T16:16:21.963Z,5.25
2022-09-12T16:18:49.686Z,7.88
2022-09-12T16:21:17.180Z,4.93
2022-09-12T16:23:46.601Z,4.93
2022-09-12T16:26:14.921Z,6.97
2022-09-12T16:28:43.236Z,6.47
2022-09-12T16:31:14.034Z,7.13
2022-09-12T16:33:41.915Z,6.78
2022-09-12T16:36:13.330Z,8.07
2022-09-12T16:38:50.143Z,5.65
2022-09-12T16:41:21.980Z,4.75
2022-09-12T16:43:49.425Z,5.03
2022-09-12T16:46:22.039Z,4.38
2022-09-12T16:48:54.370Z,4.18
2022-09-12T16:51:26.788Z,4.93
2022-09-12T16:53:55.478Z,5.60
2022-09-12T16:56:24.310Z,4.20
2022-09-12T16:58:51.965Z,5.75
2022-09-12T17:01:26.147Z,8.20
2022-09-12T17:03:56.757Z,7.32
2022-09-12T17:06:25.955Z,3.58
2022-09-12T17:08:57.830Z,6.22
2022-09-12T17:11:30.928Z,4.68
2022-09-12T17:14:06.219Z,7.45
2022-09-12T17:16:38.113Z,4.55
2022-09-12T17:21:35.463Z,7.95
2022-09-12T17:24:03.535Z,5.68
2022-09-12T17:26:31.546Z,6.45
2022-09-12T17:28:59.109Z,7.18
2022-09-12T17:31:26.682Z,8.27
2022-09-12T17:33:58.990Z,6.22
2022-09-12T17:36:28.531Z,8.43
2022-09-12T17:38:56.084Z,5.97
2022-09-12T17:41:28.109Z,6.40
2022-09-12T17:43:57.928Z,5.65
2022-09-12T17:46:32.874Z,8.98
2022-09-12T17:49:02.563Z,8.48
2022-09-12T17:51:31.463Z,7.13
2022-09-12T17:54:06.649Z,7.18
2022-09-12T17:56:36.970Z,11.63
2022-09-12T17:59:06.632Z,9.27
2022-09-12T18:01:53.737Z,9.68
2022-09-12T18:04:21.151Z,8.32
2022-09-12T18:06:49.193Z,10.20
2022-09-12T18:09:23.282Z,10.23
2022-09-12T18:11:52.048Z,10.98
2022-09-12T18:14:20.795Z,8.95
2022-09-12T18:16:48.991Z,8.10
2022-09-12T18:19:16.708Z,8.77
2022-09-12T18:21:45.523Z,7.50
2022-09-12T18:24:13.362Z,10.35
2022-09-12T18:26:43.480Z,9.57
2022-09-12T18:29:14.284Z,10.80
2022-09-12T18:31:41.714Z,9.63
2022-09-12T18:34:13.595Z,8.98
2022-09-12T18:36:43.457Z,10.25
2022-09-12T18:39:12.239Z,9.50
2022-09-12T18:41:40.119Z,11.40
2022-09-12T18:44:08.290Z,15.55
2022-09-12T18:46:35.928Z,9.90
2022-09-12T18:49:04.619Z,12.93
2022-09-12T18:51:36.274Z,9.55
2022-09-12T18:54:08.691Z,11.30
2022-09-12T18:56:38.766Z,9.85
2022-09-12T18:59:07.625Z,9.38
2022-09-12T19:01:37.789Z,10.43
2022-09-12T19:04:07.569Z,8.25
2022-09-12T19:06:40.618Z,10.02
2022-09-12T19:09:09.598Z,7.30
2022-09-12T19:11:40.761Z,7.28
2022-09-12T19:14:08.367Z,7.75
2022-09-12T19:16:36.203Z,10.27
2022-09-12T19:19:04.126Z,12.30
2022-09-12T19:21:34.203Z,8.10
2022-09-12T19:24:06.348Z,14.00
2022-09-12T19:26:34.333Z,7.97
2022-09-12T19:29:02.980Z,12.25
2022-09-12T19:31:32.687Z,9.73
2022-09-12T19:34:06.574Z,10.25
2022-09-12T19:36:50.407Z,12.63
2022-09-12T19:39:19.675Z,9.15
2022-09-12T19:41:48.178Z,10.05
2022-09-12T19:44:15.886Z,11.10
2022-09-12T19:46:43.441Z,12.57
2022-09-12T19:49:12.783Z,14.30
2022-09-12T19:51:40.576Z,13.02
2022-09-12T19:54:08.100Z,9.85
2022-09-12T19:56:35.546Z,10.05
2022-09-12T19:59:03.114Z,12.38
2022-09-12T20:01:30.503Z,11.57
2022-09-12T20:03:59.275Z,9.07
2022-09-12T20:06:27.364Z,11.93
2022-09-12T20:08:55.924Z,10.00
2022-09-12T20:11:25.758Z,10.82
2022-09-12T20:13:53.506Z,11.75
2022-09-12T20:16:29.155Z,12.10
2022-09-12T20:19:00.849Z,12.43
2022-09-12T20:21:32.194Z,10.85
2022-09-12T20:26:37.845Z,9.95
2022-09-12T20:29:06.592Z,9.38
2022-09-12T20:31:35.033Z,13.02
2022-09-12T20:34:02.812Z,11.88
2022-09-12T20:36:30.413Z,10.88
2022-09-12T20:39:01.168Z,9.93
2022-09-12T20:41:33.169Z,9.17
2022-09-12T20:44:00.838Z,15.55
2022-09-12T20:46:29.243Z,10.25
2022-09-12T20:48:58.362Z,10.18
2022-09-12T20:51:27.233Z,12.32
2022-09-12T20:53:57.113Z,15.93
2022-09-12T20:56:26.642Z,10.70
2022-09-12T20:58:55.501Z,12.73
2022-09-12T21:01:25.254Z,10.55
2022-09-12T21:03:53.810Z,10.95
2022-09-12T21:06:21.786Z,14.23
2022-09-12T21:08:50.626Z,10.90
2022-09-12T21:11:20.221Z,10.20
2022-09-12T21:13:47.858Z,11.90
2022-09-12T21:16:19.346Z,11.98
2022-09-12T21:21:16.299Z,11.73
2022-09-12T21:23:44.448Z,9.85
2022-09-12T21:26:12.005Z,11.02
2022-09-12T21:28:39.425Z,10.93
2022-09-12T21:31:06.955Z,12.10
2022-09-12T21:33:34.560Z,11.57
2022-09-12T21:36:03.993Z,12.10
2022-09-12T21:38:33.511Z,9.75
2022-09-12T21:41:12.110Z,17.58
2022-09-12T21:43:40.528Z,12.55
2022-09-12T21:46:08.831Z,12.60
2022-09-12T21:48:37.448Z,14.00
2022-09-12T21:51:05.364Z,13.70
2022-09-12T21:53:33.990Z,10.63
2022-09-12T21:56:04.732Z,12.23
2022-09-12T21:58:32.220Z,11.70
2022-09-12T22:01:00.867Z,14.07
2022-09-12T22:03:29.582Z,12.38
2022-09-12T22:06:03.949Z,12.15
2022-09-12T22:08:33.600Z,13.50
2022-09-12T22:11:05.059Z,12.10
2022-09-12T22:13:32.575Z,11.00
2022-09-12T22:16:02.966Z,11.40
2022-09-12T22:18:36.545Z,10.93
2022-09-12T22:21:18.246Z,13.95
2022-09-12T22:26:39.022Z,12.80
2022-09-12T22:29:06.462Z,14.30
2022-09-12T22:31:33.854Z,16.25
2022-09-12T22:34:01.291Z,21.02
2022-09-12T22:36:31.239Z,16.27
2022-09-12T22:39:00.175Z,17.37
2022-09-12T22:41:28.390Z,16.60
2022-09-12T22:43:57.745Z,16.90
2022-09-12T22:46:25.450Z,20.75
2022-09-12T22:48:52.874Z,12.75
2022-09-12T22:51:20.323Z,18.67
2022-09-12T22:53:47.757Z,14.35
2022-09-12T22:56:15.662Z,13.25
2022-09-12T22:58:43.769Z,15.77
2022-09-12T23:01:11.609Z,14.77
2022-09-12T23:03:40.057Z,19.88
2022-09-12T23:06:09.943Z,15.98
2022-09-12T23:08:39.770Z,18.50
2022-09-12T23:11:19.016Z,15.95
2022-09-12T23:13:49.340Z,14.07
2022-09-12T23:16:24.926Z,13.20
2022-09-12T23:18:52.735Z,14.43
2022-09-12T23:21:21.878Z,13.88
2022-09-12T23:23:50.313Z,13.73
2022-09-12T23:26:24.808Z,20.13
2022-09-12T23:28:59.241Z,14.10
2022-09-12T23:31:30.965Z,17.90
2022-09-12T23:34:03.634Z,16.73
2022-09-12T23:36:31.182Z,13.63
2022-09-12T23:38:58.644Z,14.60
2022-09-12T23:41:27.192Z,16.73
2022-09-12T23:43:54.664Z,14.88
2022-09-12T23:46:22.340Z,15.13
2022-09-12T23:48:49.929Z,17.65
2022-09-12T23:51:17.465Z,18.42
2022-09-12T23:53:44.973Z,15.00
2022-09-12T23:56:12.398Z,15.05
2022-09-12T23:58:39.835Z,16.13
